CheckWX is a tool to help pilots better visualize weather data.  It is not intended as a substitute for an official pre-flight weather briefing.

18:26:34 UTC

CYGH METAR
Fort Good Hope Airport
Fort Good Hope, Northwest Territories, Canada
Current

27 mins ago

CYGH 171800Z 00000KT 15SM BKN190 M23/M26 A3037 RMK AC7 SLP300
Observed
Feb-17 @ 18:00 UTC
Visibility
15 SM
Flight Rules
VFR
Cloud Levels
  • Broken at 19,000' AGL
Temperature
-23°C / -9°F
Dewpoint
-26°C / -15°F
Humidity
77%
Altimeter
30.37" Hg
Pressure
1030 hPa
Previous

1 hour ago

CYGH 171700Z 08004KT 15SM OVC190 M24/M27 A3035 RMK AC8 SLP294
Observed
Feb-17 @ 17:00 UTC
Wind
  • 080° at 4 KTS
Visibility
15 SM
Flight Rules
VFR
Cloud Levels
  • Overcast at 19,000' AGL
Temperature
-24°C / -11°F
Dewpoint
-27°C / -17°F
Humidity
76%
Altimeter
30.35" Hg
Pressure
1029.4 hPa
Previous

2 hours ago

CYGH 171600Z 11004KT 15SM FEW060 OVC170 M24/M28 A3035 RMK SC1AC7 SLP293
Observed
Feb-17 @ 16:00 UTC
Wind
  • 110° at 4 KTS
Visibility
15 SM
Flight Rules
VFR
Cloud Levels
  • Few at 6,000' AGL
  • Overcast at 17,000' AGL
Temperature
-24°C / -11°F
Dewpoint
-28°C / -18°F
Humidity
70%
Altimeter
30.35" Hg
Pressure
1029.3 hPa